createdAt,value
2023-04-13T00:00:32.392Z,80.43
2023-04-13T00:03:00.392Z,80.78
2023-04-13T00:05:28.178Z,80.68
2023-04-13T00:07:55.399Z,80.81
2023-04-13T00:10:22.617Z,80.88
2023-04-13T00:12:49.653Z,80.82
2023-04-13T00:15:19.214Z,81.07
2023-04-13T00:17:47.469Z,81.60
2023-04-13T00:20:14.655Z,80.78
2023-04-13T00:22:45.600Z,81.88
2023-04-13T00:25:14.802Z,82.67
2023-04-13T00:27:43.317Z,83.60
2023-04-13T00:30:12.507Z,83.71
2023-04-13T00:32:40.749Z,83.45
2023-04-13T00:35:08.525Z,84.40
2023-04-13T00:37:35.039Z,85.69
2023-04-13T00:40:01.740Z,86.04
2023-04-13T00:42:28.181Z,83.97
2023-04-13T00:44:54.895Z,84.81
2023-04-13T00:47:27.521Z,85.18
2023-04-13T00:49:55.800Z,84.08
2023-04-13T00:52:22.814Z,84.32
2023-04-13T00:54:51.557Z,83.15
2023-04-13T00:57:19.887Z,83.84
2023-04-13T00:59:49.427Z,83.84
2023-04-13T01:02:16.781Z,85.27
2023-04-13T01:04:49.219Z,84.62
2023-04-13T01:07:19.778Z,83.26
2023-04-13T01:10:00.119Z,81.04
2023-04-13T01:12:48.963Z,81.40
2023-04-13T01:15:16.841Z,81.86
2023-04-13T01:17:54.054Z,79.99
2023-04-13T01:20:21.360Z,81.49
2023-04-13T01:22:55.608Z,82.09
2023-04-13T01:25:40.737Z,79.93
2023-04-13T01:28:09.621Z,79.48
2023-04-13T01:30:37.622Z,79.15
2023-04-13T01:33:04.654Z,78.94
2023-04-13T01:35:32.000Z,79.09
2023-04-13T01:37:59.066Z,79.97
2023-04-13T01:40:27.173Z,79.44
2023-04-13T01:42:53.597Z,79.72
2023-04-13T01:45:23.668Z,79.14
2023-04-13T01:48:06.793Z,79.53
2023-04-13T01:50:36.010Z,78.75
2023-04-13T01:53:08.604Z,78.27
2023-04-13T01:55:38.282Z,78.78
2023-04-13T01:58:06.358Z,78.45
2023-04-13T02:00:37.027Z,78.07
2023-04-13T02:03:05.196Z,78.24
2023-04-13T02:05:38.203Z,78.49
2023-04-13T02:08:06.425Z,78.57
2023-04-13T02:10:37.618Z,78.07
2023-04-13T02:13:04.407Z,77.79
2023-04-13T02:15:36.015Z,78.19
2023-04-13T02:18:03.261Z,78.03
2023-04-13T02:20:30.619Z,78.27
2023-04-13T02:22:57.044Z,77.62
2023-04-13T02:25:23.841Z,78.17
2023-04-13T02:27:51.495Z,78.03
2023-04-13T02:30:17.864Z,77.92
2023-04-13T02:32:49.449Z,77.70
2023-04-13T02:35:16.069Z,77.67
2023-04-13T02:37:42.455Z,78.59
2023-04-13T02:40:12.760Z,77.83
2023-04-13T02:42:39.423Z,77.79
2023-04-13T02:45:08.375Z,77.68
2023-04-13T02:47:34.934Z,77.71
2023-04-13T02:50:02.014Z,78.78
2023-04-13T02:52:28.487Z,79.11
2023-04-13T02:54:55.336Z,78.39
2023-04-13T02:57:22.435Z,77.91
2023-04-13T02:59:49.846Z,78.16
2023-04-13T03:02:17.216Z,77.49
2023-04-13T03:04:44.309Z,77.87
2023-04-13T03:07:14.584Z,76.76
2023-04-13T03:09:41.352Z,76.57
2023-04-13T03:12:07.787Z,76.42
2023-04-13T03:14:34.210Z,77.70
2023-04-13T03:17:00.844Z,76.87
2023-04-13T03:19:28.541Z,76.82
2023-04-13T03:21:55.113Z,76.89
2023-04-13T03:24:21.578Z,77.13
2023-04-13T03:26:47.978Z,76.97
2023-04-13T03:29:14.507Z,76.70
2023-04-13T03:31:41.570Z,76.18
2023-04-13T03:34:08.055Z,76.32
2023-04-13T03:36:34.438Z,77.80
2023-04-13T03:39:02.170Z,77.17
2023-04-13T03:41:28.692Z,76.63
2023-04-13T03:43:55.179Z,76.55
2023-04-13T03:46:21.917Z,76.88
2023-04-13T03:48:48.348Z,76.98
2023-04-13T03:51:14.775Z,76.71
2023-04-13T03:53:41.384Z,77.17
2023-04-13T03:56:08.400Z,77.53
2023-04-13T03:58:35.488Z,77.83
2023-04-13T04:01:02.163Z,78.05
2023-04-13T04:03:28.760Z,79.10
2023-04-13T04:05:55.581Z,80.21
2023-04-13T04:08:22.232Z,81.67
2023-04-13T04:10:48.616Z,82.60
2023-04-13T04:13:15.035Z,85.26
2023-04-13T04:15:41.417Z,85.18
2023-04-13T04:18:08.632Z,86.43
2023-04-13T04:20:35.289Z,85.21
2023-04-13T04:23:04.631Z,86.75
2023-04-13T04:25:31.628Z,85.53
2023-04-13T04:27:58.029Z,86.82
2023-04-13T04:30:25.006Z,86.08
2023-04-13T04:32:53.132Z,86.56
2023-04-13T04:35:26.082Z,86.43
2023-04-13T04:37:53.307Z,85.26
2023-04-13T04:40:19.768Z,84.55
2023-04-13T04:42:46.168Z,84.99
2023-04-13T04:45:14.172Z,84.42
2023-04-13T04:47:43.721Z,84.53
2023-04-13T04:50:12.525Z,84.38
2023-04-13T04:52:39.400Z,83.95
2023-04-13T04:55:06.380Z,83.72
2023-04-13T04:57:34.240Z,84.44
2023-04-13T05:00:01.396Z,84.01
2023-04-13T05:02:28.212Z,83.77
2023-04-13T05:04:56.030Z,84.04
2023-04-13T05:07:22.534Z,83.87
2023-04-13T05:09:49.346Z,83.94
2023-04-13T05:12:16.428Z,83.91
2023-04-13T05:14:42.864Z,84.17
2023-04-13T05:17:09.252Z,84.05
2023-04-13T05:19:37.169Z,84.09
2023-04-13T05:22:05.477Z,84.86
2023-04-13T05:24:33.581Z,83.87
2023-04-13T05:27:00.671Z,83.86
2023-04-13T05:29:27.084Z,83.92
2023-04-13T05:31:53.609Z,84.60
2023-04-13T05:34:20.195Z,84.42
2023-04-13T05:36:46.610Z,84.46
2023-04-13T05:39:13.828Z,84.27
2023-04-13T05:41:40.219Z,84.31
2023-04-13T05:44:06.836Z,83.80
2023-04-13T05:46:33.314Z,84.52
2023-04-13T05:49:01.665Z,84.03
2023-04-13T05:51:32.810Z,83.64
2023-04-13T05:53:59.303Z,84.41
2023-04-13T05:56:26.052Z,83.88
2023-04-13T05:58:53.277Z,83.45
2023-04-13T06:01:19.976Z,83.19
2023-04-13T06:03:47.478Z,83.86
2023-04-13T06:06:14.626Z,82.96
2023-04-13T06:08:41.057Z,83.60
2023-04-13T06:11:08.044Z,83.39
2023-04-13T06:13:34.593Z,83.18
2023-04-13T06:16:01.537Z,82.66
2023-04-13T06:18:28.692Z,82.88
2023-04-13T06:20:57.944Z,83.04
2023-04-13T06:23:24.397Z,82.82
2023-04-13T06:25:50.992Z,82.26
2023-04-13T06:28:17.753Z,82.95
2023-04-13T06:30:44.257Z,82.61
2023-04-13T06:33:11.233Z,82.34
2023-04-13T06:35:37.709Z,81.72
2023-04-13T06:38:04.100Z,81.91
2023-04-13T06:40:32.128Z,81.96
2023-04-13T06:42:58.634Z,80.56
2023-04-13T06:45:25.586Z,80.95
2023-04-13T06:47:53.762Z,81.27
2023-04-13T06:50:20.242Z,81.43
2023-04-13T06:52:47.972Z,80.95
2023-04-13T06:55:14.977Z,80.38
2023-04-13T06:57:41.637Z,80.06
2023-04-13T07:00:26.084Z,79.57
2023-04-13T07:02:57.045Z,79.22
2023-04-13T07:05:23.682Z,78.20
2023-04-13T07:07:50.101Z,78.62
2023-04-13T07:10:16.566Z,76.98
2023-04-13T07:12:43.009Z,76.97
2023-04-13T07:15:09.912Z,77.21
2023-04-13T07:17:36.959Z,76.87
2023-04-13T07:20:05.876Z,76.85
2023-04-13T07:22:35.466Z,76.07
2023-04-13T07:25:02.741Z,76.58
2023-04-13T07:27:29.221Z,76.34
2023-04-13T07:29:55.703Z,76.19
2023-04-13T07:32:24.462Z,76.35
2023-04-13T07:34:58.674Z,77.20
2023-04-13T07:37:25.088Z,76.78
2023-04-13T07:39:51.432Z,77.43
2023-04-13T07:42:17.812Z,77.42
2023-04-13T07:44:44.342Z,77.57
2023-04-13T07:47:13.037Z,77.54
2023-04-13T07:49:39.679Z,77.72
2023-04-13T07:52:06.084Z,77.83
2023-04-13T07:54:32.528Z,78.17
2023-04-13T07:56:59.773Z,78.42
2023-04-13T07:59:26.159Z,78.98
2023-04-13T08:01:53.098Z,78.27
2023-04-13T08:04:19.584Z,77.87
2023-04-13T08:06:46.177Z,79.50
2023-04-13T08:09:12.658Z,79.32
2023-04-13T08:11:39.078Z,78.87
2023-04-13T08:14:05.912Z,78.06
2023-04-13T08:16:34.365Z,78.15
2023-04-13T08:19:02.128Z,77.68
2023-04-13T08:21:29.814Z,76.85
2023-04-13T08:23:56.935Z,76.63
2023-04-13T08:26:24.345Z,76.45
2023-04-13T08:28:52.898Z,76.45
2023-04-13T08:31:20.414Z,76.82
2023-04-13T08:33:46.964Z,77.39
2023-04-13T08:36:13.428Z,76.56
2023-04-13T08:38:39.820Z,77.27
2023-04-13T08:41:07.193Z,77.39
2023-04-13T08:43:35.745Z,76.60
2023-04-13T08:46:06.552Z,76.93
2023-04-13T08:48:53.431Z,76.75
2023-04-13T08:51:22.322Z,77.28
2023-04-13T08:53:49.366Z,77.31
2023-04-13T08:56:16.618Z,76.66
2023-04-13T08:58:45.108Z,76.40
2023-04-13T09:01:13.622Z,76.73
2023-04-13T09:03:53.939Z,77.14
2023-04-13T09:06:28.156Z,77.85
2023-04-13T09:08:55.615Z,78.24
2023-04-13T09:11:22.132Z,78.59
2023-04-13T09:13:50.537Z,78.80
2023-04-13T09:16:18.483Z,78.24
2023-04-13T09:18:55.623Z,76.65
2023-04-13T09:21:24.096Z,75.46
2023-04-13T09:23:58.690Z,73.93
2023-04-13T09:26:26.122Z,72.12
2023-04-13T09:28:56.089Z,70.98
2023-04-13T09:31:23.402Z,70.29
2023-04-13T09:33:53.297Z,70.84
2023-04-13T09:36:21.497Z,70.48
2023-04-13T09:38:53.236Z,71.00
2023-04-13T09:41:31.833Z,71.44
2023-04-13T09:44:02.703Z,71.00
2023-04-13T09:46:29.438Z,71.64
2023-04-13T09:49:01.865Z,71.52
2023-04-13T09:51:39.814Z,72.86
2023-04-13T09:54:06.926Z,72.48
2023-04-13T09:56:52.600Z,72.90
2023-04-13T09:59:19.387Z,72.46
2023-04-13T10:01:46.799Z,69.95
2023-04-13T10:04:13.595Z,69.24
2023-04-13T10:06:42.008Z,69.79
2023-04-13T10:09:09.444Z,68.59
2023-04-13T10:11:44.611Z,66.58
2023-04-13T10:14:17.434Z,68.46
2023-04-13T10:17:05.467Z,66.06
2023-04-13T10:19:43.545Z,66.37
2023-04-13T10:22:11.445Z,67.88
2023-04-13T10:24:39.846Z,68.40
2023-04-13T10:27:18.533Z,67.59
2023-04-13T10:29:46.397Z,68.52
2023-04-13T10:32:27.526Z,68.67
2023-04-13T10:34:55.117Z,70.11
2023-04-13T10:37:28.558Z,69.82
2023-04-13T10:40:06.931Z,69.67
2023-04-13T10:42:52.546Z,69.58
2023-04-13T10:45:28.695Z,70.36
2023-04-13T10:47:56.304Z,70.66
2023-04-13T10:50:24.723Z,69.68
2023-04-13T10:53:10.527Z,68.75
2023-04-13T10:55:37.007Z,68.81
2023-04-13T10:58:14.698Z,67.57
2023-04-13T11:00:46.740Z,66.77
2023-04-13T11:03:16.468Z,65.53
2023-04-13T11:05:44.673Z,65.65
2023-04-13T11:08:19.037Z,64.38
2023-04-13T11:10:51.752Z,65.08
2023-04-13T11:13:18.280Z,64.35
2023-04-13T11:15:45.602Z,64.59
2023-04-13T11:18:12.306Z,65.22
2023-04-13T11:20:40.496Z,64.34
2023-04-13T11:23:16.062Z,63.42
2023-04-13T11:25:54.994Z,63.62
2023-04-13T11:28:23.387Z,64.57
2023-04-13T11:30:58.542Z,62.86
2023-04-13T11:33:28.902Z,63.09
2023-04-13T11:35:57.383Z,64.13
2023-04-13T11:38:23.802Z,64.03
2023-04-13T11:40:56.793Z,63.65
2023-04-13T11:43:28.356Z,63.44
2023-04-13T11:45:54.958Z,62.77
2023-04-13T11:48:22.159Z,61.82
2023-04-13T11:50:50.099Z,62.44
2023-04-13T11:53:17.345Z,63.54
2023-04-13T11:55:52.944Z,64.09
2023-04-13T11:58:21.216Z,64.74
2023-04-13T12:00:48.579Z,66.52
2023-04-13T12:05:47.602Z,68.48
2023-04-13T12:08:26.038Z,66.82
2023-04-13T12:13:50.321Z,65.79
2023-04-13T12:17:01.545Z,64.76
2023-04-13T12:19:23.256Z,59.05
2023-04-13T12:21:57.504Z,60.22
2023-04-13T12:24:38.962Z,56.99
2023-04-13T12:29:41.392Z,54.32
2023-04-13T12:32:14.919Z,52.72
2023-04-13T12:34:43.100Z,49.69
2023-04-13T12:37:11.216Z,49.29
2023-04-13T12:39:37.934Z,49.33
2023-04-13T12:42:05.147Z,49.18
2023-04-13T12:44:33.792Z,49.06
2023-04-13T12:47:01.005Z,47.39
2023-04-13T12:49:27.508Z,48.47
2023-04-13T12:51:53.910Z,50.13
2023-04-13T12:54:20.266Z,50.83
2023-04-13T12:56:46.813Z,51.79
2023-04-13T12:59:13.326Z,52.89
2023-04-13T13:01:39.785Z,51.01
2023-04-13T13:04:06.510Z,52.82
2023-04-13T13:06:34.125Z,51.90
2023-04-13T13:09:01.151Z,51.91
2023-04-13T13:11:28.208Z,53.01
2023-04-13T13:13:54.805Z,51.74
2023-04-13T13:16:21.327Z,51.07
2023-04-13T13:18:51.288Z,50.15
2023-04-13T13:21:27.820Z,50.08
2023-04-13T13:23:54.254Z,51.32
2023-04-13T13:26:24.300Z,51.63
2023-04-13T13:28:52.805Z,50.54
2023-04-13T13:31:19.595Z,47.82
2023-04-13T13:33:46.298Z,46.34
2023-04-13T13:36:14.063Z,45.91
2023-04-13T13:38:41.238Z,48.70
2023-04-13T13:41:07.634Z,47.19
2023-04-13T13:43:34.200Z,47.60
2023-04-13T13:46:05.550Z,48.71
2023-04-13T13:48:32.099Z,50.00
2023-04-13T13:50:58.555Z,50.51
2023-04-13T13:53:25.101Z,51.06
2023-04-13T13:55:51.821Z,50.34
2023-04-13T13:58:18.188Z,48.72
2023-04-13T14:03:11.873Z,47.22
2023-04-13T14:05:38.596Z,46.65
2023-04-13T14:08:06.148Z,47.42
2023-04-13T14:10:32.631Z,46.90
2023-04-13T14:12:59.118Z,45.77
2023-04-13T14:15:25.691Z,45.44
2023-04-13T14:18:06.557Z,45.29
2023-04-13T14:20:38.680Z,44.69
2023-04-13T14:23:05.712Z,42.28
2023-04-13T14:25:32.156Z,43.69
2023-04-13T14:27:58.546Z,41.62
2023-04-13T14:30:27.457Z,41.74
2023-04-13T14:32:54.564Z,42.22
2023-04-13T14:35:21.088Z,41.97
2023-04-13T14:37:47.566Z,40.93
2023-04-13T14:40:14.445Z,41.72
2023-04-13T14:42:41.086Z,41.33
2023-04-13T14:45:10.430Z,40.02
2023-04-13T14:47:37.421Z,40.64
2023-04-13T14:50:04.683Z,41.02
2023-04-13T14:52:31.565Z,40.74
2023-04-13T14:54:57.974Z,42.53
2023-04-13T14:57:24.447Z,42.32
2023-04-13T14:59:51.381Z,43.18
2023-04-13T15:02:19.116Z,43.35
2023-04-13T15:04:45.679Z,42.51
2023-04-13T15:07:12.647Z,42.96
2023-04-13T15:09:40.045Z,44.00
2023-04-13T15:12:12.373Z,42.58
2023-04-13T15:14:40.588Z,43.31
2023-04-13T15:17:08.371Z,43.68
2023-04-13T15:19:34.814Z,44.81
2023-04-13T15:22:01.197Z,46.12
2023-04-13T15:24:27.655Z,45.46
2023-04-13T15:26:54.325Z,44.71
2023-04-13T15:29:21.337Z,44.47
2023-04-13T15:31:47.792Z,43.49
2023-04-13T15:34:14.252Z,43.33
2023-04-13T15:36:40.685Z,44.12
2023-04-13T15:39:07.395Z,44.76
2023-04-13T15:41:34.358Z,42.33
2023-04-13T15:44:01.823Z,41.62
2023-04-13T15:46:28.435Z,44.31
2023-04-13T15:48:56.101Z,42.83
2023-04-13T15:51:23.168Z,42.66
2023-04-13T15:53:49.575Z,44.00
2023-04-13T15:56:16.094Z,45.00
2023-04-13T15:58:42.506Z,44.06
2023-04-13T16:01:13.013Z,44.35
2023-04-13T16:03:40.393Z,43.47
2023-04-13T16:06:07.795Z,45.01
2023-04-13T16:08:34.227Z,43.93
2023-04-13T16:11:01.398Z,44.10
2023-04-13T16:13:41.429Z,44.03
2023-04-13T16:16:14.498Z,44.86
2023-04-13T16:18:41.021Z,44.54
2023-04-13T16:21:07.418Z,45.07
2023-04-13T16:23:33.886Z,44.88
2023-04-13T16:26:01.432Z,43.99
2023-04-13T16:28:28.906Z,44.78
2023-04-13T16:30:56.098Z,43.92
2023-04-13T16:33:22.699Z,46.81
2023-04-13T16:35:49.199Z,45.03
2023-04-13T16:38:15.576Z,44.80
2023-04-13T16:40:42.038Z,44.68
2023-04-13T16:43:08.441Z,45.93
2023-04-13T16:45:36.278Z,43.47
2023-04-13T16:48:02.714Z,42.88
2023-04-13T16:50:31.493Z,44.17
2023-04-13T16:52:59.197Z,44.67
2023-04-13T16:55:28.107Z,46.03
2023-04-13T16:57:54.718Z,44.68
2023-04-13T17:00:21.536Z,44.12
2023-04-13T17:02:48.105Z,43.81
2023-04-13T17:05:14.795Z,44.03
2023-04-13T17:07:43.560Z,44.40
2023-04-13T17:10:13.158Z,44.21
2023-04-13T17:12:40.338Z,44.79
2023-04-13T17:15:07.422Z,44.65
2023-04-13T17:17:34.651Z,43.86
2023-04-13T17:20:01.748Z,44.21
2023-04-13T17:22:28.300Z,43.66
2023-04-13T17:24:55.418Z,43.18
2023-04-13T17:27:21.836Z,43.78
2023-04-13T17:29:49.675Z,43.05
2023-04-13T17:32:16.581Z,43.43
2023-04-13T17:34:44.627Z,43.52
2023-04-13T17:37:11.676Z,43.36
2023-04-13T17:39:42.093Z,42.32
2023-04-13T17:42:09.457Z,42.67
2023-04-13T17:44:36.028Z,43.09
2023-04-13T17:47:02.498Z,42.75
2023-04-13T17:49:28.947Z,42.63
2023-04-13T17:51:55.313Z,42.83
2023-04-13T17:54:21.708Z,44.23
2023-04-13T17:56:48.197Z,44.84
2023-04-13T17:59:14.893Z,44.15
2023-04-13T18:01:43.421Z,43.50
2023-04-13T18:04:11.691Z,44.12
2023-04-13T18:06:38.750Z,43.52
2023-04-13T18:09:05.220Z,44.42
2023-04-13T18:11:32.012Z,43.87
2023-04-13T18:13:59.655Z,45.15
2023-04-13T18:16:26.810Z,46.36
2023-04-13T18:18:53.731Z,44.72
2023-04-13T18:21:20.189Z,44.35
2023-04-13T18:23:46.834Z,48.59
2023-04-13T18:26:13.233Z,49.57
2023-04-13T18:28:40.946Z,52.62
2023-04-13T18:31:07.867Z,56.79
2023-04-13T18:33:34.309Z,58.96
2023-04-13T18:36:00.993Z,59.06
2023-04-13T18:38:27.437Z,59.44
2023-04-13T18:40:53.931Z,61.64
2023-04-13T18:43:20.477Z,62.74
2023-04-13T18:45:46.957Z,65.33
2023-04-13T18:48:13.477Z,65.11
2023-04-13T18:50:40.010Z,66.56
2023-04-13T18:53:06.408Z,66.51
2023-04-13T18:55:33.042Z,65.92
2023-04-13T18:57:59.582Z,65.42
2023-04-13T19:00:26.231Z,66.43
2023-04-13T19:02:52.963Z,66.87
2023-04-13T19:05:19.690Z,67.92
2023-04-13T19:07:58.537Z,68.07
2023-04-13T19:10:26.307Z,68.44
2023-04-13T19:12:52.752Z,70.48
2023-04-13T19:15:19.542Z,70.91
2023-04-13T19:17:46.923Z,71.54
2023-04-13T19:20:13.413Z,69.51
2023-04-13T19:22:39.896Z,68.60
2023-04-13T19:25:07.458Z,71.58
2023-04-13T19:27:33.868Z,70.69
2023-04-13T19:30:00.580Z,71.84
2023-04-13T19:32:27.067Z,71.29
2023-04-13T19:34:53.508Z,72.58
2023-04-13T19:37:19.883Z,72.65
2023-04-13T19:39:46.389Z,71.63
2023-04-13T19:42:12.833Z,72.52
2023-04-13T19:44:39.313Z,71.62
2023-04-13T19:47:05.861Z,72.24
2023-04-13T19:49:33.210Z,72.13
2023-04-13T19:51:59.682Z,72.66
2023-04-13T19:54:26.109Z,72.27
2023-04-13T19:56:52.547Z,72.68
2023-04-13T19:59:19.017Z,73.28
2023-04-13T20:01:45.898Z,73.07
2023-04-13T20:04:12.847Z,73.84
2023-04-13T20:06:39.467Z,72.28
2023-04-13T20:09:13.932Z,73.97
2023-04-13T20:11:43.579Z,73.52
2023-04-13T20:14:11.595Z,73.78
2023-04-13T20:16:38.210Z,74.32
2023-04-13T20:19:06.577Z,74.96
2023-04-13T20:21:34.305Z,75.28
2023-04-13T20:24:01.138Z,75.43
2023-04-13T20:26:29.661Z,75.84
2023-04-13T20:28:57.357Z,75.60
2023-04-13T20:31:24.985Z,75.91
2023-04-13T20:33:51.746Z,75.38
2023-04-13T20:36:21.084Z,76.30
2023-04-13T20:38:48.222Z,76.20
2023-04-13T20:41:14.675Z,76.48
2023-04-13T20:43:41.625Z,76.91
2023-04-13T20:46:09.829Z,75.49
2023-04-13T20:51:09.041Z,74.37
2023-04-13T20:53:37.611Z,74.15
2023-04-13T20:56:05.267Z,70.96
2023-04-13T20:58:34.823Z,71.32
2023-04-13T21:01:01.446Z,69.57
2023-04-13T21:03:30.550Z,67.04
2023-04-13T21:05:58.323Z,66.04
2023-04-13T21:08:25.801Z,65.53
2023-04-13T21:10:52.276Z,65.03
2023-04-13T21:13:19.267Z,64.41
2023-04-13T21:15:45.893Z,65.18
2023-04-13T21:18:12.291Z,65.30
2023-04-13T21:20:40.657Z,65.81
2023-04-13T21:23:07.164Z,65.80
2023-04-13T21:25:33.594Z,66.42
2023-04-13T21:28:00.145Z,66.21
2023-04-13T21:30:26.618Z,66.99
2023-04-13T21:32:53.044Z,66.97
2023-04-13T21:35:19.486Z,67.48
2023-04-13T21:37:45.891Z,67.16
2023-04-13T21:40:12.504Z,67.48
2023-04-13T21:42:40.718Z,67.88
2023-04-13T21:45:07.836Z,68.06
2023-04-13T21:47:34.293Z,68.93
2023-04-13T21:50:00.738Z,68.17
2023-04-13T21:52:28.772Z,68.39
2023-04-13T21:54:55.350Z,68.63
2023-04-13T21:57:21.863Z,68.86
2023-04-13T21:59:48.257Z,71.21
2023-04-13T22:02:14.748Z,73.41
2023-04-13T22:04:41.188Z,74.63
2023-04-13T22:07:07.598Z,72.27
2023-04-13T22:09:34.107Z,74.97
2023-04-13T22:12:00.835Z,76.71
2023-04-13T22:14:27.223Z,77.82
2023-04-13T22:16:54.040Z,77.38
2023-04-13T22:19:20.478Z,78.71
2023-04-13T22:21:46.978Z,78.97
2023-04-13T22:24:13.765Z,79.86
2023-04-13T22:26:40.261Z,79.55
2023-04-13T22:29:07.035Z,79.47
2023-04-13T22:31:33.637Z,80.06
2023-04-13T22:34:00.659Z,80.58
2023-04-13T22:36:27.100Z,79.99
2023-04-13T22:38:54.723Z,80.38
2023-04-13T22:41:21.191Z,80.34
2023-04-13T22:43:47.660Z,81.23
2023-04-13T22:46:14.094Z,81.57
2023-04-13T22:48:40.493Z,82.04
2023-04-13T22:51:07.010Z,81.70
2023-04-13T22:53:33.482Z,81.66
2023-04-13T22:56:00.879Z,81.68
2023-04-13T22:58:28.386Z,82.30
2023-04-13T23:00:54.956Z,82.76
2023-04-13T23:03:21.714Z,82.46
2023-04-13T23:05:48.368Z,82.97
2023-04-13T23:08:14.886Z,83.80
2023-04-13T23:10:41.441Z,83.74
2023-04-13T23:13:07.890Z,83.73
2023-04-13T23:15:35.443Z,84.31
2023-04-13T23:18:02.783Z,84.00
2023-04-13T23:20:29.613Z,84.88
2023-04-13T23:22:56.002Z,85.19
2023-04-13T23:25:22.436Z,85.02
2023-04-13T23:27:48.834Z,85.34
2023-04-13T23:30:16.163Z,84.58
2023-04-13T23:32:42.680Z,85.31
2023-04-13T23:35:09.328Z,85.58
2023-04-13T23:37:35.880Z,86.17
2023-04-13T23:40:02.299Z,86.02
2023-04-13T23:42:28.780Z,85.90
2023-04-13T23:44:55.338Z,86.00
2023-04-13T23:47:22.244Z,86.43
2023-04-13T23:49:48.787Z,86.61
2023-04-13T23:52:15.213Z,86.81
2023-04-13T23:54:41.688Z,86.96
2023-04-13T23:57:09.726Z,86.92
2023-04-13T23:59:36.099Z,87.15
